Time;durP1;ratioP1;P1;durP2;ratioP2;P2;SDS_P1;SDS_P2;PMS_P1;PMS_P2;Temp;Humidity;BMP_temperature;BMP_pressure;BME280_temperature;BME280_humidity;BME280_pressure;Samples;Min_cycle;Max_cycle;Signal;HPM_P1;HPM_P2
2023/09/02 00:00:10;;;;;;;5.50;4.10;;;;;;;17.23;99.70;100984.00;7395192;19;20721;-62
2023/09/02 00:02:42;;;;;;;5.15;3.90;;;;;;;17.20;100.00;100985.25;7395655;19;20924;-63
2023/09/02 00:05:08;;;;;;;6.72;3.70;;;;;;;17.20;100.00;100984.44;7396109;19;20340;-62
2023/09/02 00:07:35;;;;;;;4.88;3.72;;;;;;;17.18;100.00;100975.78;7391193;19;20389;-61
2023/09/02 00:10:03;;;;;;;4.68;3.72;;;;;;;17.16;100.00;100984.03;7397814;19;20870;-62
2023/09/02 00:12:30;;;;;;;5.40;3.67;;;;;;;17.13;100.00;100979.13;7397765;19;20355;-63
2023/09/02 00:14:57;;;;;;;5.80;3.73;;;;;;;17.11;100.00;100979.31;7394108;19;20368;-61
2023/09/02 00:17:24;;;;;;;5.82;4.03;;;;;;;17.09;100.00;100975.22;7383871;19;20872;-63
2023/09/02 00:19:51;;;;;;;4.97;3.95;;;;;;;17.08;100.00;100982.41;7384487;19;20379;-62
2023/09/02 00:22:17;;;;;;;4.97;3.53;;;;;;;17.09;100.00;100973.34;7390838;19;20356;-62
2023/09/02 00:24:44;;;;;;;5.20;3.83;;;;;;;17.09;100.00;100981.38;7395696;19;20371;-63
2023/09/02 00:27:11;;;;;;;8.05;4.03;;;;;;;17.10;100.00;100980.34;7395036;19;20872;-62
2023/09/02 00:29:38;;;;;;;4.78;3.38;;;;;;;17.11;100.00;100982.00;7396246;19;20340;-61
2023/09/02 00:32:05;;;;;;;3.70;3.27;;;;;;;17.10;100.00;100983.00;7395337;19;20859;-63
2023/09/02 00:34:32;;;;;;;5.45;4.18;;;;;;;17.08;100.00;100979.72;7389347;19;20356;-62
2023/09/02 00:36:59;;;;;;;6.95;3.70;;;;;;;17.08;100.00;100986.94;7394248;19;20372;-61
2023/09/02 00:39:26;;;;;;;5.47;3.70;;;;;;;17.05;100.00;100982.03;7391339;19;20387;-62
2023/09/02 00:41:57;;;;;;;4.97;3.53;;;;;;;17.04;100.00;100986.56;7396274;19;21074;-63
2023/09/02 00:44:24;;;;;;;5.13;3.47;;;;;;;17.03;100.00;100984.91;7395473;19;20379;-63
2023/09/02 00:46:51;;;;;;;4.65;3.58;;;;;;;17.01;100.00;100986.97;7394947;19;20371;-63
2023/09/02 00:49:18;;;;;;;4.63;3.60;;;;;;;17.03;100.00;100986.75;7394244;19;20379;-63
2023/09/02 00:51:45;;;;;;;6.35;4.18;;;;;;;16.99;100.00;100986.34;7395785;19;20725;-62
2023/09/02 00:54:11;;;;;;;6.72;3.90;;;;;;;16.99;100.00;100989.03;7395107;19;20415;-62
2023/09/02 00:56:38;;;;;;;6.38;3.90;;;;;;;16.98;100.00;100990.09;7395256;19;20675;-63
2023/09/02 00:59:06;;;;;;;6.50;4.10;;;;;;;16.98;100.00;100992.75;7391832;19;20440;-63
2023/09/02 01:01:35;;;;;;;7.27;3.80;;;;;;;16.96;100.00;100997.50;7393580;19;20457;-63
2023/09/02 01:04:05;;;;;;;5.28;3.70;;;;;;;16.94;100.00;100988.84;7395082;19;20376;-62
2023/09/02 01:06:34;;;;;;;4.45;3.60;;;;;;;16.96;100.00;100997.50;7393478;19;20398;-62
2023/09/02 01:09:03;;;;;;;5.85;3.63;;;;;;;16.97;100.00;100996.47;7390141;19;20375;-62
2023/09/02 01:11:33;;;;;;;5.05;3.78;;;;;;;16.98;100.00;100990.09;7395932;19;20894;-62
2023/09/02 01:14:01;;;;;;;6.05;3.83;;;;;;;16.98;100.00;100987.41;7391895;19;20488;-62
2023/09/02 01:16:29;;;;;;;5.75;4.10;;;;;;;17.00;100.00;100995.22;7392277;19;20364;-62
2023/09/02 01:18:57;;;;;;;6.30;3.95;;;;;;;16.98;100.00;101002.63;7393898;19;20365;-62
2023/09/02 01:21:36;;;;;;;4.40;3.53;;;;;;;16.96;100.00;101000.19;7394280;19;20380;-62
2023/09/02 01:24:45;;;;;;;5.25;4.00;;;;;;;16.98;100.00;100991.91;7392645;19;20360;-63
2023/09/02 01:27:16;;;;;;;4.40;4.00;;;;;;;16.97;100.00;100996.47;7395393;19;20357;-62
2023/09/02 01:30:02;;;;;;;6.13;4.45;;;;;;;16.97;100.00;101001.81;7391901;19;20364;-62
2023/09/02 01:32:34;;;;;;;5.43;4.50;;;;;;;16.97;100.00;101007.19;7394122;19;20424;-61
2023/09/02 01:35:06;;;;;;;6.40;4.30;;;;;;;16.98;100.00;101006.16;7387319;19;20360;-60
2023/09/02 01:37:38;;;;;;;4.95;4.20;;;;;;;16.98;100.00;101008.00;7391511;19;20461;-62
2023/09/02 01:40:08;;;;;;;5.28;4.47;;;;;;;16.97;100.00;101011.72;7392820;19;20336;-59
2023/09/02 01:42:35;;;;;;;5.78;4.45;;;;;;;16.96;100.00;101023.47;7394628;19;20428;-60
2023/09/02 01:45:03;;;;;;;5.25;4.55;;;;;;;16.95;100.00;101025.31;7392332;19;20354;-60
2023/09/02 01:47:31;;;;;;;5.00;4.43;;;;;;;16.95;100.00;101021.81;7392250;19;20716;-61
2023/09/02 01:49:59;;;;;;;6.10;4.93;;;;;;;16.96;100.00;101026.13;7393484;19;20364;-63
2023/09/02 01:52:26;;;;;;;5.68;4.80;;;;;;;16.97;100.00;101030.47;7390731;19;20727;-62
2023/09/02 01:54:53;;;;;;;7.25;4.72;;;;;;;16.98;100.00;101030.28;7395074;19;20371;-63
2023/09/02 01:57:20;;;;;;;6.47;5.30;;;;;;;16.98;100.00;101035.63;7391300;19;20356;-63
2023/09/02 01:59:47;;;;;;;5.72;4.78;;;;;;;16.97;100.00;101035.84;7391947;19;20709;-60
2023/09/02 02:02:16;;;;;;;5.38;4.47;;;;;;;16.94;100.00;101029.06;7389379;19;20385;-62
2023/09/02 02:04:51;;;;;;;6.47;4.80;;;;;;;16.96;100.00;101031.50;7389750;19;20802;-62
2023/09/02 02:07:21;;;;;;;5.68;4.72;;;;;;;16.97;100.00;101031.28;7388645;19;20360;-62
2023/09/02 02:09:53;;;;;;;5.75;4.47;;;;;;;16.99;100.00;101031.09;7385223;19;20435;-62
2023/09/02 02:12:21;;;;;;;6.32;4.53;;;;;;;17.01;100.00;101035.22;7390032;19;20809;-63
2023/09/02 02:14:48;;;;;;;5.43;4.45;;;;;;;17.01;100.00;101043.25;7390667;19;20340;-61
2023/09/02 02:17:14;;;;;;;6.43;4.60;;;;;;;17.02;100.00;101042.22;7391101;19;20357;-63
2023/09/02 02:19:44;;;;;;;5.78;5.00;;;;;;;17.02;100.00;101047.59;7389273;19;20406;-62
2023/09/02 02:22:11;;;;;;;6.57;4.87;;;;;;;17.03;100.00;101045.72;7390411;19;20368;-62
2023/09/02 02:24:37;;;;;;;6.72;4.78;;;;;;;17.02;100.00;101047.59;7391150;19;20440;-63
2023/09/02 02:27:04;;;;;;;6.45;5.00;;;;;;;17.01;100.00;101056.66;7392826;19;20380;-63
2023/09/02 02:29:31;;;;;;;5.68;4.53;;;;;;;17.00;100.00;101048.81;7390233;19;20432;-62
2023/09/02 02:31:58;;;;;;;5.63;5.03;;;;;;;17.00;100.00;101044.31;7389998;19;20431;-62
2023/09/02 02:34:25;;;;;;;6.20;4.80;;;;;;;17.00;100.00;101049.66;7390723;19;20360;-62
2023/09/02 02:36:52;;;;;;;5.75;4.97;;;;;;;17.00;100.00;101056.84;7390837;19;20755;-63
2023/09/02 02:39:18;;;;;;;5.93;4.78;;;;;;;16.97;100.00;101052.75;7389175;19;20368;-62
2023/09/02 02:41:45;;;;;;;5.78;4.70;;;;;;;16.92;100.00;101053.38;7390108;19;20352;-61
2023/09/02 02:44:12;;;;;;;6.70;4.70;;;;;;;16.92;100.00;101057.91;7391475;19;20368;-61
2023/09/02 02:46:39;;;;;;;6.07;4.55;;;;;;;16.92;100.00;101057.91;7389528;19;20732;-61
2023/09/02 02:49:05;;;;;;;7.15;5.18;;;;;;;16.92;100.00;101068.63;7386870;19;20463;-61
2023/09/02 02:51:32;;;;;;;5.68;4.70;;;;;;;16.89;100.00;101069.88;7388617;19;20348;-60
2023/09/02 02:53:59;;;;;;;6.43;4.80;;;;;;;16.89;100.00;101069.88;7391480;19;20372;-61
2023/09/02 02:56:26;;;;;;;6.78;4.95;;;;;;;16.87;100.00;101065.72;7391334;19;20352;-61
2023/09/02 02:58:54;;;;;;;7.97;4.90;;;;;;;16.85;100.00;101073.16;7396061;19;20352;-62
2023/09/02 03:01:22;;;;;;;7.33;5.20;;;;;;;16.85;100.00;101065.13;7396360;19;20352;-61
2023/09/02 03:03:49;;;;;;;5.70;5.10;;;;;;;16.83;100.00;101070.69;7398197;19;20364;-60
2023/09/02 03:06:18;;;;;;;6.35;5.00;;;;;;;16.83;100.00;101072.53;7392745;19;20471;-61
2023/09/02 03:08:45;;;;;;;7.97;5.85;;;;;;;16.82;100.00;101078.94;7397289;19;20541;-61
2023/09/02 03:11:12;;;;;;;6.35;5.38;;;;;;;16.82;100.00;101070.91;7396227;19;20714;-61
2023/09/02 03:13:39;;;;;;;7.57;5.47;;;;;;;16.81;100.00;101080.81;7398484;19;20721;-61
2023/09/02 03:16:14;;;;;;;5.95;5.10;;;;;;;16.81;100.00;101080.81;7396539;19;20361;-62
2023/09/02 03:18:41;;;;;;;6.32;5.03;;;;;;;16.79;100.00;101069.44;7397005;19;20934;-62
2023/09/02 03:21:09;;;;;;;7.20;5.18;;;;;;;16.78;100.00;101072.31;7391566;19;20348;-60
2023/09/02 03:23:36;;;;;;;6.63;5.35;;;;;;;16.77;100.00;101073.34;7394794;19;20376;-62
2023/09/02 03:26:11;;;;;;;7.27;5.27;;;;;;;16.74;100.00;101076.44;7396654;19;20729;-61
2023/09/02 03:28:41;;;;;;;7.10;4.77;;;;;;;16.66;100.00;101070.25;7394989;19;20360;-61
2023/09/02 03:31:10;;;;;;;6.53;4.85;;;;;;;16.62;100.00;101069.03;7394725;19;20358;-62
2023/09/02 03:33:40;;;;;;;6.25;5.03;;;;;;;16.59;100.00;101080.13;7396542;19;20360;-62
2023/09/02 03:36:15;;;;;;;7.68;5.10;;;;;;;16.57;100.00;101079.50;7394054;19;20432;-62
2023/09/02 03:38:43;;;;;;;5.33;4.83;;;;;;;16.54;100.00;101069.22;7396608;19;20501;-62
2023/09/02 03:41:17;;;;;;;6.97;5.30;;;;;;;16.53;100.00;101078.25;7391276;19;20352;-61
2023/09/02 03:43:45;;;;;;;5.70;5.13;;;;;;;16.49;100.00;101074.34;7395075;19;20440;-60
2023/09/02 03:46:13;;;;;;;6.25;4.80;;;;;;;16.47;100.00;101081.78;7395152;19;20372;-61
2023/09/02 03:48:40;;;;;;;5.83;4.83;;;;;;;16.44;100.00;101084.84;7395451;19;20364;-62
2023/09/02 03:51:12;;;;;;;7.30;5.00;;;;;;;16.44;100.00;101080.31;7392606;19;20376;-61
2023/09/02 03:53:43;;;;;;;5.40;4.88;;;;;;;16.47;100.00;101077.25;7396935;19;20381;-60
2023/09/02 03:56:12;;;;;;;5.80;5.20;;;;;;;16.47;100.00;101071.06;7394056;19;20375;-61
2023/09/02 03:58:39;;;;;;;6.80;5.10;;;;;;;16.45;100.00;101083.84;7390273;19;20349;-60
2023/09/02 04:01:08;;;;;;;6.97;5.30;;;;;;;16.45;100.00;101067.78;7393698;19;20444;-62
2023/09/02 04:03:35;;;;;;;6.53;5.03;;;;;;;16.42;100.00;101068.16;7393806;19;20360;-61
2023/09/02 04:06:05;;;;;;;6.70;5.00;;;;;;;16.42;100.00;101068.16;7392460;19;20986;-61
2023/09/02 04:08:34;;;;;;;5.55;4.93;;;;;;;16.43;100.00;101069.84;7395221;19;20377;-61
2023/09/02 04:11:02;;;;;;;6.53;5.10;;;;;;;16.47;100.00;101073.75;7390872;19;20428;-62
2023/09/02 04:13:30;;;;;;;6.18;4.93;;;;;;;16.49;100.00;101077.03;7392234;19;20517;-61
2023/09/02 04:16:10;;;;;;;6.30;5.20;;;;;;;16.47;100.00;101087.16;7390784;19;20391;-61
2023/09/02 04:18:37;;;;;;;7.28;5.30;;;;;;;16.42;100.00;101093.09;7392758;19;20448;-62
2023/09/02 04:21:08;;;;;;;5.65;5.03;;;;;;;16.37;100.00;101087.53;7390702;19;20372;-61
2023/09/02 04:23:37;;;;;;;7.50;5.60;;;;;;;16.34;100.00;101081.75;7393426;19;20465;-61
2023/09/02 04:26:07;;;;;;;5.72;5.10;;;;;;;16.33;100.00;101091.63;7396347;19;20380;-61
2023/09/02 04:28:34;;;;;;;6.47;5.30;;;;;;;16.31;100.00;101091.84;7396525;19;20408;-61
2023/09/02 04:31:02;;;;;;;5.80;5.10;;;;;;;16.31;100.00;101089.16;7392087;19;20372;-61
2023/09/02 04:33:31;;;;;;;5.90;5.30;;;;;;;16.30;100.00;101090.19;7394968;19;20482;-61
2023/09/02 04:36:00;;;;;;;6.88;5.30;;;;;;;16.33;100.00;101096.19;7391403;19;20759;-60
2023/09/02 04:38:30;;;;;;;6.85;5.13;;;;;;;16.33;100.00;101102.34;7392541;19;20904;-61
2023/09/02 04:41:01;;;;;;;6.20;5.27;;;;;;;16.34;100.00;101103.16;7396321;19;20428;-62
2023/09/02 04:43:28;;;;;;;6.50;4.93;;;;;;;16.34;100.00;101108.53;7396145;19;20376;-61
2023/09/02 04:46:03;;;;;;;6.57;5.63;;;;;;;16.33;100.00;101113.06;7396047;19;20345;-60
2023/09/02 04:48:34;;;;;;;5.70;5.00;;;;;;;16.29;100.00;101117.97;7396434;19;20755;-61
2023/09/02 04:51:03;;;;;;;6.20;5.07;;;;;;;16.28;100.00;101124.38;7394320;19;20440;-58
2023/09/02 04:53:31;;;;;;;6.28;5.18;;;;;;;16.25;100.00;101129.31;7392881;19;20402;-61
2023/09/02 04:56:00;;;;;;;6.00;4.90;;;;;;;16.22;100.00;101135.88;7397915;19;20385;-61
2023/09/02 04:58:29;;;;;;;5.50;5.00;;;;;;;16.20;100.00;101132.59;7393903;19;20393;-61
2023/09/02 05:01:10;;;;;;;6.40;5.43;;;;;;;16.21;100.00;101139.56;7392782;19;20365;-60
2023/09/02 05:03:40;;;;;;;5.60;5.03;;;;;;;16.21;100.00;101136.91;7393888;19;20436;-61
2023/09/02 05:06:10;;;;;;;5.40;4.90;;;;;;;16.25;100.00;101142.69;7394284;19;20712;-61
2023/09/02 05:08:40;;;;;;;5.70;5.10;;;;;;;16.27;100.00;101141.44;7394002;19;20429;-61
2023/09/02 05:11:07;;;;;;;6.10;5.00;;;;;;;16.31;100.00;101137.34;7392667;19;20368;-62
2023/09/02 05:13:34;;;;;;;5.70;4.93;;;;;;;16.36;100.00;101149.31;7392501;19;20440;-62
2023/09/02 05:16:02;;;;;;;5.70;5.00;;;;;;;16.40;100.00;101139.84;7394566;19;20364;-62
2023/09/02 05:18:29;;;;;;;5.40;4.90;;;;;;;16.45;100.00;101142.75;7393448;19;20390;-61
2023/09/02 05:20:56;;;;;;;5.40;4.33;;;;;;;16.47;100.00;101146.06;7393933;19;20363;-62
2023/09/02 05:23:23;;;;;;;6.45;4.70;;;;;;;16.47;100.00;101140.72;7391870;19;20919;-62
2023/09/02 05:25:56;;;;;;;6.05;4.88;;;;;;;16.45;100.00;101148.13;7395435;19;20378;-62
2023/09/02 05:28:24;;;;;;;6.10;4.68;;;;;;;16.42;100.00;101159.22;7394772;19;20899;-60
2023/09/02 05:30:54;;;;;;;6.60;4.73;;;;;;;16.39;100.00;101154.28;7391393;19;20356;-61
2023/09/02 05:33:21;;;;;;;6.73;5.00;;;;;;;16.33;100.00;101155.06;7395800;19;20368;-61
2023/09/02 05:35:48;;;;;;;5.20;4.70;;;;;;;16.29;100.00;101158.13;7394984;19;20356;-60
2023/09/02 05:38:15;;;;;;;5.32;4.82;;;;;;;16.29;100.00;101160.81;7395239;19;20369;-59
2023/09/02 05:40:42;;;;;;;6.40;4.63;;;;;;;16.30;100.00;101164.34;7394252;19;20375;-60
2023/09/02 05:43:09;;;;;;;6.55;4.88;;;;;;;16.37;100.00;101167.03;7394958;19;20387;-61
2023/09/02 05:45:36;;;;;;;5.63;4.93;;;;;;;16.45;100.00;101177.56;7392296;19;20374;-61
2023/09/02 05:48:03;;;;;;;5.03;4.53;;;;;;;16.54;100.00;101168.31;7392707;19;20364;-62
2023/09/02 05:50:31;;;;;;;5.88;5.00;;;;;;;16.64;100.00;101173.25;7393870;19;20364;-61
2023/09/02 05:52:58;;;;;;;5.53;4.70;;;;;;;16.73;100.00;101165.88;7395343;19;20352;-61
2023/09/02 05:55:25;;;;;;;5.00;4.50;;;;;;;16.80;100.00;101169.38;7387316;19;20669;-62
2023/09/02 05:57:51;;;;;;;4.88;4.25;;;;;;;16.86;100.00;101169.41;7392585;19;20351;-62
2023/09/02 06:00:18;;;;;;;5.78;4.57;;;;;;;16.95;100.00;101171.91;7394873;19;20357;-62
2023/09/02 06:02:45;;;;;;;5.60;4.90;;;;;;;17.03;100.00;101169.84;7393806;19;20352;-59
2023/09/02 06:05:12;;;;;;;5.35;4.80;;;;;;;17.15;100.00;101174.56;7391178;19;20369;-60
2023/09/02 06:07:38;;;;;;;5.70;4.93;;;;;;;17.25;100.00;101172.31;7392544;19;20353;-61
2023/09/02 06:10:05;;;;;;;5.20;4.47;;;;;;;17.33;100.00;101178.28;7395537;19;20681;-60
2023/09/02 06:12:32;;;;;;;6.53;4.80;;;;;;;17.41;100.00;101185.28;7394510;19;20364;-59
2023/09/02 06:15:00;;;;;;;4.47;4.07;;;;;;;17.45;100.00;101186.53;7392563;19;20356;-60
2023/09/02 06:17:30;;;;;;;4.67;4.17;;;;;;;17.53;100.00;101182.78;7388689;19;20917;-61
2023/09/02 06:20:00;;;;;;;5.80;4.80;;;;;;;17.63;100.00;101190.41;7391933;19;20369;-59
2023/09/02 06:22:27;;;;;;;5.35;4.85;;;;;;;17.70;99.80;101185.84;7388330;19;20413;-63
2023/09/02 06:24:59;;;;;;;5.20;4.70;;;;;;;17.75;99.86;101188.75;7393078;19;20368;-63
2023/09/02 06:27:26;;;;;;;6.05;4.97;;;;;;;17.88;99.49;101188.72;7394641;19;20367;-60
2023/09/02 06:29:52;;;;;;;9.18;7.50;;;;;;;18.08;100.00;101180.59;7389191;19;20505;-58
2023/09/02 06:32:19;;;;;;;37.40;29.23;;;;;;;18.40;100.00;101182.53;7382851;19;20366;-60
2023/09/02 06:34:50;;;;;;;287.15;226.82;;;;;;;18.63;99.26;101182.81;7393332;19;20348;-59
2023/09/02 06:37:16;;;;;;;6.68;5.28;;;;;;;18.74;96.64;101179.44;7392819;19;20363;-61
2023/09/02 06:39:43;;;;;;;6.00;4.85;;;;;;;18.85;95.86;101179.78;7387444;19;20356;-60
2023/09/02 06:42:10;;;;;;;5.32;4.38;;;;;;;18.95;94.52;101196.25;7390383;19;20360;-61
2023/09/02 06:44:37;;;;;;;5.82;4.57;;;;;;;19.03;94.56;101197.88;7391054;19;20369;-59
2023/09/02 06:47:04;;;;;;;6.45;4.25;;;;;;;19.21;93.56;101205.16;7390531;19;20416;-58
2023/09/02 06:49:32;;;;;;;5.72;5.13;;;;;;;19.33;91.80;101208.78;7393765;19;20379;-58
2023/09/02 06:51:59;;;;;;;4.90;4.33;;;;;;;19.42;91.57;101210.13;7394349;19;21039;-59
2023/09/02 06:54:25;;;;;;;4.95;4.45;;;;;;;19.46;90.29;101208.66;7394287;19;20364;-60
2023/09/02 06:56:52;;;;;;;5.60;3.83;;;;;;;19.59;90.33;101215.78;7393578;19;20341;-61
2023/09/02 06:59:19;;;;;;;4.50;3.00;;;;;;;19.84;89.05;101210.38;7391316;19;20388;-61
2023/09/02 07:01:46;;;;;;;5.85;4.80;;;;;;;20.04;88.40;101207.47;7391472;19;20364;-60
2023/09/02 07:04:12;;;;;;;6.10;4.55;;;;;;;20.07;86.16;101204.31;7391955;19;20377;-59
2023/09/02 07:06:39;;;;;;;5.63;4.50;;;;;;;20.17;86.72;101209.19;7389341;19;20651;-61
2023/09/02 07:09:06;;;;;;;4.55;4.05;;;;;;;20.44;86.42;101196.16;7389090;19;20911;-60
2023/09/02 07:11:33;;;;;;;5.53;2.83;;;;;;;20.75;85.83;101203.22;7391378;19;20435;-61
2023/09/02 07:14:00;;;;;;;4.57;2.75;;;;;;;21.04;84.31;101206.13;7391823;19;20353;-60
2023/09/02 07:16:26;;;;;;;5.13;4.22;;;;;;;21.28;82.43;101204.25;7388936;19;20348;-61
2023/09/02 07:18:54;;;;;;;6.78;3.95;;;;;;;21.56;80.14;101225.19;7388236;19;20436;-60
2023/09/02 07:21:23;;;;;;;6.60;5.82;;;;;;;21.67;79.03;101211.91;7390429;19;20785;-61
2023/09/02 07:23:51;;;;;;;5.53;4.40;;;;;;;21.65;78.38;101214.84;7392826;19;20438;-61
2023/09/02 07:26:21;;;;;;;6.57;2.97;;;;;;;21.84;78.31;101218.22;7393718;19;20352;-61
2023/09/02 07:28:49;;;;;;;5.28;4.32;;;;;;;22.03;77.51;101215.38;7393984;19;20447;-60
2023/09/02 07:31:16;;;;;;;5.93;4.30;;;;;;;22.18;77.26;101219.22;7387222;19;20344;-60
2023/09/02 07:33:43;;;;;;;5.80;4.53;;;;;;;22.38;76.77;101224.25;7390620;19;20368;-60
2023/09/02 07:36:12;;;;;;;7.75;5.40;;;;;;;22.49;74.62;101219.03;7390071;19;20441;-61
2023/09/02 07:38:40;;;;;;;9.02;8.13;;;;;;;22.46;74.64;101225.72;7377355;19;20372;-60
2023/09/02 07:41:08;;;;;;;6.78;4.45;;;;;;;22.42;74.28;101231.88;7387038;19;20367;-60
2023/09/02 07:43:36;;;;;;;5.97;4.10;;;;;;;22.52;74.01;101240.19;7388565;19;20356;-61
2023/09/02 07:46:04;;;;;;;5.83;4.30;;;;;;;22.65;73.68;101242.56;7391472;19;20924;-61
2023/09/02 07:48:30;;;;;;;5.72;4.50;;;;;;;22.80;73.40;101242.03;7396072;19;20715;-61
2023/09/02 07:50:57;;;;;;;7.00;6.22;;;;;;;22.93;72.56;101243.63;7397377;19;20872;-60
2023/09/02 07:53:24;;;;;;;6.65;5.88;;;;;;;23.08;72.17;101246.63;7397641;19;20368;-61
2023/09/02 07:55:51;;;;;;;7.37;6.57;;;;;;;23.10;70.50;101246.38;7396176;19;20823;-61
2023/09/02 07:58:18;;;;;;;6.28;5.20;;;;;;;23.16;71.20;101246.22;7396764;19;20376;-61
2023/09/02 08:00:44;;;;;;;8.18;6.68;;;;;;;23.22;70.61;101251.72;7394918;19;20438;-61
2023/09/02 08:03:11;;;;;;;8.75;6.82;;;;;;;23.29;70.63;101255.06;7398903;19;20352;-59
2023/09/02 08:05:39;;;;;;;7.35;6.55;;;;;;;23.41;69.81;101256.63;7395757;19;20378;-60
2023/09/02 08:08:07;;;;;;;5.83;5.23;;;;;;;23.56;69.77;101258.75;7398087;19;20842;-60
2023/09/02 08:10:34;;;;;;;8.25;6.00;;;;;;;23.77;69.51;101262.59;7399865;19;20377;-60
2023/09/02 08:13:05;;;;;;;6.75;4.75;;;;;;;24.04;69.47;101267.31;7395449;19;20352;-60
2023/09/02 08:15:32;;;;;;;6.63;4.28;;;;;;;24.31;67.96;101270.09;7393866;19;20423;-61
2023/09/02 08:17:59;;;;;;;5.83;4.50;;;;;;;24.49;67.37;101262.75;7394155;19;20361;-61
2023/09/02 08:20:26;;;;;;;6.13;3.88;;;;;;;24.66;66.37;101273.50;7398599;19;20376;-61
2023/09/02 08:22:52;;;;;;;5.28;4.28;;;;;;;24.74;65.32;101275.75;7397337;19;20360;-61
2023/09/02 08:25:19;;;;;;;6.03;4.10;;;;;;;24.66;65.01;101278.94;7393470;19;20371;-61
2023/09/02 08:27:46;;;;;;;6.07;4.57;;;;;;;24.61;64.54;101274.28;7394909;19;20344;-61
2023/09/02 08:30:14;;;;;;;12.77;3.95;;;;;;;24.59;65.05;101279.94;7397128;19;20397;-60
2023/09/02 08:32:41;;;;;;;36.05;6.82;;;;;;;24.65;65.33;101291.66;7392183;19;20398;-61
2023/09/02 08:35:12;;;;;;;5.20;4.55;;;;;;;24.57;64.17;101292.13;7397914;19;20403;-61
2023/09/02 08:37:39;;;;;;;8.68;5.40;;;;;;;24.39;64.01;101304.88;7394030;19;20719;-60
2023/09/02 08:40:06;;;;;;;21.70;6.50;;;;;;;24.24;65.30;101303.88;7398139;19;20444;-59
2023/09/02 08:42:35;;;;;;;7.75;5.00;;;;;;;24.18;66.28;101308.41;7398354;19;20852;-60
2023/09/02 08:45:11;;;;;;;7.55;4.43;;;;;;;24.13;65.61;101302.94;7398941;19;20697;-59
2023/09/02 08:47:40;;;;;;;7.13;4.90;;;;;;;24.22;66.18;101307.66;7400134;19;20348;-60
2023/09/02 08:50:08;;;;;;;8.07;3.67;;;;;;;24.37;66.01;101314.34;7396214;19;20423;-60
2023/09/02 08:52:40;;;;;;;7.28;4.93;;;;;;;24.48;64.72;101320.72;7395197;19;20352;-60
2023/09/02 08:55:09;;;;;;;7.13;4.67;;;;;;;24.62;64.33;101316.59;7394528;19;20356;-60
2023/09/02 08:57:39;;;;;;;5.40;4.65;;;;;;;24.59;62.72;101322.53;7394549;19;20361;-59
2023/09/02 09:00:07;;;;;;;7.95;5.45;;;;;;;24.51;62.89;101321.06;7392227;19;20689;-60
2023/09/02 09:02:36;;;;;;;5.20;4.40;;;;;;;24.33;62.27;101321.34;7397916;19;20368;-61
2023/09/02 09:05:05;;;;;;;7.18;4.90;;;;;;;24.36;64.19;101318.97;7399756;19;20393;-57
2023/09/02 09:07:32;;;;;;;11.90;5.70;;;;;;;24.53;64.50;101320.84;7397037;19;20360;-59
2023/09/02 09:10:02;;;;;;;9.63;5.60;;;;;;;24.68;62.62;101320.19;7396602;19;20423;-59
2023/09/02 09:12:32;;;;;;;6.45;4.53;;;;;;;24.76;61.72;101320.56;7392699;19;20371;-61
2023/09/02 09:15:01;;;;;;;7.68;3.90;;;;;;;24.97;62.53;101329.72;7395894;19;20868;-60
2023/09/02 09:17:31;;;;;;;3.88;3.38;;;;;;;25.19;62.18;101332.38;7397792;19;20352;-60
2023/09/02 09:20:01;;;;;;;4.63;3.60;;;;;;;25.11;59.85;101332.03;7395691;19;20888;-59
2023/09/02 09:22:28;;;;;;;4.07;3.20;;;;;;;24.96;60.01;101332.69;7396362;19;20926;-58
2023/09/02 09:24:55;;;;;;;5.60;4.32;;;;;;;24.85;60.50;101334.47;7398578;19;20364;-60
2023/09/02 09:27:21;;;;;;;5.45;3.88;;;;;;;24.85;61.29;101328.25;7398436;19;20419;-61
2023/09/02 09:29:48;;;;;;;4.70;3.20;;;;;;;24.93;61.90;101333.22;7397841;19;20336;-60
2023/09/02 09:32:16;;;;;;;4.72;3.10;;;;;;;24.97;61.32;101337.03;7392723;19;20995;-60
2023/09/02 09:34:44;;;;;;;5.15;3.20;;;;;;;25.02;60.90;101342.53;7398298;19;20355;-60
2023/09/02 09:37:11;;;;;;;4.65;2.92;;;;;;;24.93;60.51;101338.66;7398695;19;20444;-59
2023/09/02 09:39:46;;;;;;;4.45;2.95;;;;;;;24.95;61.40;101341.91;7396826;19;20895;-60
2023/09/02 09:42:15;;;;;;;5.00;3.90;;;;;;;24.94;60.26;101343.00;7398225;19;20337;-61
2023/09/02 09:44:56;;;;;;;3.83;2.55;;;;;;;25.08;61.28;101344.22;7398388;19;20359;-60
2023/09/02 09:47:24;;;;;;;4.53;2.38;;;;;;;25.27;59.90;101344.72;7397508;19;20350;-60
2023/09/02 09:49:52;;;;;;;4.23;2.60;;;;;;;25.16;59.24;101349.19;7394268;19;20385;-59
2023/09/02 09:52:20;;;;;;;3.38;2.10;;;;;;;25.13;60.67;101349.69;7398143;19;20409;-60
2023/09/02 09:54:52;;;;;;;2.95;2.10;;;;;;;24.92;60.72;101358.72;7397775;19;20348;-61
2023/09/02 09:57:35;;;;;;;3.00;2.10;;;;;;;24.56;60.93;101350.97;7397965;19;20357;-60
2023/09/02 10:00:05;;;;;;;3.30;2.35;;;;;;;24.60;61.54;101359.41;7396591;19;20691;-60
2023/09/02 10:02:32;;;;;;;2.72;2.10;;;;;;;24.57;61.15;101349.09;7397253;19;20360;-60
2023/09/02 10:05:01;;;;;;;2.72;1.88;;;;;;;24.52;61.64;101360.66;7396802;19;20420;-61
2023/09/02 10:07:31;;;;;;;2.60;1.85;;;;;;;24.53;61.14;101359.63;7391789;19;20890;-60
2023/09/02 10:10:05;;;;;;;3.23;1.90;;;;;;;24.60;60.99;101356.72;7395594;19;20347;-59
2023/09/02 10:12:35;;;;;;;3.53;2.10;;;;;;;24.64;60.65;101355.13;7395389;19;20356;-60
2023/09/02 10:15:06;;;;;;;3.20;1.80;;;;;;;24.95;61.14;101358.19;7397493;19;20344;-60
2023/09/02 10:17:36;;;;;;;3.72;1.85;;;;;;;25.31;60.88;101362.13;7396652;19;20336;-57
2023/09/02 10:20:04;;;;;;;3.63;1.73;;;;;;;25.54;59.20;101365.56;7396087;19;20361;-58
2023/09/02 10:22:33;;;;;;;2.58;1.52;;;;;;;25.77;58.94;101361.69;7395018;19;20361;-57
2023/09/02 10:25:29;;;;;;;2.60;1.50;;;;;;;25.95;57.63;101366.75;7392710;19;20355;-59
2023/09/02 10:28:10;;;;;;;3.03;1.50;;;;;;;26.01;56.48;101365.69;7393835;19;20424;-59
2023/09/02 10:30:48;;;;;;;3.17;1.80;;;;;;;25.86;55.93;101368.25;7396295;19;20374;-59
2023/09/02 10:33:31;;;;;;;3.63;2.20;;;;;;;25.60;56.77;101376.22;7395242;19;20837;-58
2023/09/02 10:36:00;;;;;;;2.47;1.73;;;;;;;25.54;57.03;101365.56;7396433;19;20341;-59
2023/09/02 10:38:31;;;;;;;2.70;1.83;;;;;;;25.35;56.87;101367.84;7396675;19;20412;-61
2023/09/02 10:41:10;;;;;;;3.08;2.13;;;;;;;25.17;58.00;101367.13;7393206;19;20698;-59
2023/09/02 10:43:39;;;;;;;2.95;2.10;;;;;;;24.99;58.03;101368.31;7395295;19;20698;-59
2023/09/02 10:46:08;;;;;;;3.28;2.00;;;;;;;24.79;58.81;101379.72;7392972;19;20403;-60
2023/09/02 10:48:43;;;;;;;2.80;1.90;;;;;;;24.75;59.68;101365.03;7395967;19;20354;-60
2023/09/02 10:51:12;;;;;;;2.97;2.00;;;;;;;24.81;60.00;101374.88;7396439;19;20352;-60
2023/09/02 10:53:48;;;;;;;2.90;2.05;;;;;;;24.78;60.63;101375.38;7396629;19;20865;-60
2023/09/02 10:56:26;;;;;;;3.75;2.50;;;;;;;24.64;58.19;101368.69;7395935;19;20373;-60
2023/09/02 10:58:53;;;;;;;2.55;1.95;;;;;;;24.58;59.30;101369.72;7395812;19;20948;-61
2023/09/02 11:01:20;;;;;;;2.63;1.80;;;;;;;24.52;59.57;101363.38;7394676;19;20340;-60
2023/09/02 11:03:54;;;;;;;3.10;2.63;;;;;;;24.38;60.31;101371.06;7392920;19;20700;-58
2023/09/02 11:06:21;;;;;;;2.50;2.00;;;;;;;24.33;59.91;101373.72;7395949;19;20392;-59
2023/09/02 11:08:49;;;;;;;3.67;2.28;;;;;;;24.35;60.07;101365.31;7395715;19;20400;-60
2023/09/02 11:11:18;;;;;;;3.00;2.28;;;;;;;24.43;60.01;101378.44;7395479;19;20856;-60
2023/09/02 11:14:07;;;;;;;3.80;2.50;;;;;;;24.51;61.27;101379.94;7395728;19;20947;-60
2023/09/02 11:16:35;;;;;;;2.65;2.25;;;;;;;24.59;60.57;101377.59;7395949;19;20354;-58
2023/09/02 11:19:08;;;;;;;3.80;2.45;;;;;;;24.65;60.30;101373.03;7400130;19;20360;-60
2023/09/02 11:21:40;;;;;;;2.58;1.95;;;;;;;24.82;60.09;101381.09;7399933;19;20687;-61
2023/09/02 11:24:17;;;;;;;2.95;1.80;;;;;;;25.00;58.99;101382.69;7401287;19;20371;-60
2023/09/02 11:26:57;;;;;;;2.40;1.30;;;;;;;25.07;57.35;101380.56;7402919;19;20339;-60